地図

経路データ

SID SEASON NUMBER BASIN SUBBASIN NAME ISO_TIME NATURE LAT LON WMO_WIND WMO_PRES WMO_AGENCY TRACK_TYPE DIST2LAND LANDFALL IFLAG USA_AGENCY USA_ATCF_ID USA_LAT USA_LON USA_RECORD USA_STATUS USA_WIND USA_PRES USA_SSHS USA_R34_NE USA_R34_SE USA_R34_SW USA_R34_NW USA_R50_NE USA_R50_SE USA_R50_SW USA_R50_NW USA_R64_NE USA_R64_SE USA_R64_SW USA_R64_NW USA_POCI USA_ROCI USA_RMW USA_EYE TOKYO_LAT TOKYO_LON TOKYO_GRADE TOKYO_WIND TOKYO_PRES TOKYO_R50_DIR TOKYO_R50_LONG TOKYO_R50_SHORT TOKYO_R30_DIR TOKYO_R30_LONG TOKYO_R30_SHORT TOKYO_LAND CMA_LAT CMA_LON CMA_CAT CMA_WIND CMA_PRES HKO_LAT HKO_LON HKO_CAT HKO_WIND HKO_PRES NEWDELHI_LAT NEWDELHI_LON NEWDELHI_GRADE NEWDELHI_WIND NEWDELHI_PRES NEWDELHI_CI NEWDELHI_DP NEWDELHI_POCI REUNION_LAT REUNION_LON REUNION_TYPE REUNION_WIND REUNION_PRES REUNION_TNUM REUNION_CI REUNION_RMW REUNION_R34_NE REUNION_R34_SE REUNION_R34_SW REUNION_R34_NW REUNION_R50_NE REUNION_R50_SE REUNION_R50_SW REUNION_R50_NW REUNION_R64_NE REUNION_R64_SE REUNION_R64_SW REUNION_R64_NW BOM_LAT BOM_LON BOM_TYPE BOM_WIND BOM_PRES BOM_TNUM BOM_CI BOM_RMW BOM_R34_NE BOM_R34_SE BOM_R34_SW BOM_R34_NW BOM_R50_NE BOM_R50_SE BOM_R50_SW BOM_R50_NW BOM_R64_NE BOM_R64_SE BOM_R64_SW BOM_R64_NW BOM_ROCI BOM_POCI BOM_EYE BOM_POS_METHOD BOM_PRES_METHOD NADI_LAT NADI_LON NADI_CAT NADI_WIND NADI_PRES WELLINGTON_LAT WELLINGTON_LON WELLINGTON_WIND WELLINGTON_PRES DS824_LAT DS824_LON DS824_STAGE DS824_WIND DS824_PRES TD9636_LAT TD9636_LON TD9636_STAGE TD9636_WIND TD9636_PRES TD9635_LAT TD9635_LON TD9635_WIND TD9635_PRES TD9635_ROCI NEUMANN_LAT NEUMANN_LON NEUMANN_CLASS NEUMANN_WIND NEUMANN_PRES MLC_LAT MLC_LON MLC_CLASS MLC_WIND MLC_PRES USA_GUST BOM_GUST BOM_GUST_PER REUNION_GUST REUNION_GUST_PER USA_SEAHGT USA_SEARAD_NE USA_SEARAD_SE USA_SEARAD_SW USA_SEARAD_NW STORM_SPEED STORM_DIR
2000202N12131 2000 48 WP MM BOLAVEN 2000-07-19 12:00:00 TS 12.0000 130.800 main 556 556 O_____________ jtwc_wp WP102000 12.0000 130.800 TD 15 -1 2 0
2000202N12131 2000 48 WP MM BOLAVEN 2000-07-19 15:00:00 TS 12.0975 130.800 main 558 558 P_____________ WP102000 12.0975 130.800 TD 17 -1 2 8
2000202N12131 2000 48 WP MM BOLAVEN 2000-07-19 18:00:00 TS 12.2000 130.800 main 561 561 O_____________ jtwc_wp WP102000 12.2000 130.800 TD 20 -1 2 6
2000202N12131 2000 48 WP MM BOLAVEN 2000-07-19 21:00:00 TS 12.3200 130.800 main 564 564 P_____________ WP102000 12.3200 130.800 TD 22 -1 3 0
2000202N12131 2000 48 WP MM BOLAVEN 2000-07-20 00:00:00 TS 12.5000 130.800 main 569 569 O_____________ jtwc_wp WP102000 12.5000 130.800 TD 25 -1 5 0
2000202N12131 2000 48 WP MM BOLAVEN 2000-07-20 03:00:00 TS 12.7700 130.822 main 579 579 P_____________ WP102000 12.7700 130.822 TD 25 -1 6 1
2000202N12131 2000 48 WP MM BOLAVEN 2000-07-20 06:00:00 TS 13.1000 130.800 main 584 577 O_____________ jtwc_wp WP102000 13.1000 130.800 TD 25 -1 7 349
2000202N12131 2000 48 WP MM BOLAVEN 2000-07-20 09:00:00 TS 13.4500 130.688 main 579 567 P_____________ WP102000 13.4500 130.688 TD 25 -1 8 337
2000202N12131 2000 48 WP MM BOLAVEN 2000-07-20 12:00:00 TS 13.8000 130.500 main 570 557 O_____________ jtwc_wp WP102000 13.8000 130.500 TD 25 -1 8 328
2000202N12131 2000 48 WP MM BOLAVEN 2000-07-20 15:00:00 TS 14.1000 130.265 main 561 541 P_____________ WP102000 14.1000 130.265 TD 25 -1 8 321
2000202N12131 2000 48 WP MM BOLAVEN 2000-07-20 18:00:00 TS 14.4000 130.000 main 545 537 O_____________ jtwc_wp WP102000 14.4000 130.000 TD 25 -1 8 322
2000202N12131 2000 48 WP MM BOLAVEN 2000-07-20 21:00:00 TS 14.7425 129.750 main 533 533 P_____________ WP102000 14.7425 129.750 TD 25 -1 9 325
2000202N12131 2000 48 WP MM BOLAVEN 2000-07-21 00:00:00 TS 15.1000 129.500 main 540 538 O_____________ jtwc_wp WP102000 15.1000 129.500 TD 25 -1 8 327
2000202N12131 2000 48 WP MM BOLAVEN 2000-07-21 03:00:00 TS 15.4348 129.287 main 544 538 P_____________ WP102000 15.4348 129.287 TD 25 -1 9 325
2000202N12131 2000 48 WP MM BOLAVEN 2000-07-21 06:00:00 TS 15.8000 129.000 main 538 519 O_____________ jtwc_wp WP102000 15.8000 129.000 TD 25 -1 11 320
2000202N12131 2000 48 WP MM BOLAVEN 2000-07-21 09:00:00 TS 16.2650 128.553 main 524 497 P_____________ WP102000 16.2650 128.553 TD 25 -1 13 313
2000202N12131 2000 48 WP MM BOLAVEN 2000-07-21 12:00:00 TS 16.7000 128.000 main 497 472 O_____________ jtwc_wp WP102000 16.7000 128.000 TD 25 -1 13 304
2000202N12131 2000 48 WP MM BOLAVEN 2000-07-21 15:00:00 TS 17.0026 127.392 main 472 438 P_____________ WP102000 17.0026 127.392 TD 25 -1 13 287
2000202N12131 2000 48 WP MM BOLAVEN 2000-07-21 18:00:00 TS 17.0600 126.740 main 431 404 O__O__________ jtwc_wp WP102000 17.2000 126.800 TD 25 -1 16.5000 126.500 TD 23 1002 11 273
2000202N12131 2000 48 WP MM BOLAVEN 2000-07-21 21:00:00 TS 17.0665 126.286 main 404 361 P__P__________ WP102000 17.3297 126.327 TD 25 -1 16.5401 126.202 TD 23 1002 8 270
2000202N12131 2000 48 WP MM BOLAVEN 2000-07-22 00:00:00 TS 17.0571 125.900 main 361 319 O__O__________ jtwc_wp WP102000 17.4000 125.900 TD 25 -1 16.6000 125.900 TD 23 1002 7 271
2000202N12131 2000 48 WP MM BOLAVEN 2000-07-22 03:00:00 TS 17.0749 125.525 main 319 287 P__P__________ WP102000 17.4573 125.457 TD 25 -1 16.6925 125.593 TD 24 1002 7 277
2000202N12131 2000 48 WP MM BOLAVEN 2000-07-22 06:00:00 TS 17.1500 125.150 main 287 245 O__O__________ jtwc_wp WP102000 17.5000 125.000 TD 25 -1 16.8000 125.300 TD 25 1002 7 282
2000202N12131 2000 48 WP MM BOLAVEN 2000-07-22 09:00:00 TS 17.2249 124.771 main 245 204 P__P__________ WP102000 17.5499 124.507 TD 25 -1 16.9000 125.035 TD 25 1001 7 282
2000202N12131 2000 48 WP MM BOLAVEN 2000-07-22 12:00:00 TS 17.3000 124.400 main 204 175 O__O__________ jtwc_wp WP102000 17.6000 124.000 TD 25 -1 17.0000 124.800 TD 25 1000 7 282
2000202N12131 2000 48 WP MM BOLAVEN 2000-07-22 15:00:00 TS 17.3712 124.042 main 165 145 P__P__________ WP102000 17.6424 123.492 TD 25 -1 17.1000 124.592 TD 25 1000 6 281
2000202N12131 2000 48 WP MM BOLAVEN 2000-07-22 18:00:00 TS 17.4143 123.800 main 145 129 O__O__________ jtwc_wp WP102000 17.7000 123.000 TD 25 -1 17.2000 124.400 TD 25 1000 4 283
2000202N12131 2000 48 WP MM BOLAVEN 2000-07-22 21:00:00 TS 17.4584 123.642 main 129 129 P__P__________ WP102000 17.7908 122.515 TD 22 -1 17.2925 124.192 TD 25 1000 1 320
2000202N12131 2000 48 WP MM BOLAVEN 2000-07-23 00:00:00 TS 17.4667 123.750 main 148 148 O_OO__________ jtwc_wp WP102000 17.9000 122.100 TD 20 -1 17.3000 124.400 1 29 1002 17.4000 124.000 TD 25 1000 4 81
2000202N12131 2000 48 WP MM BOLAVEN 2000-07-23 03:00:00 TS 17.5141 124.019 main 168 168 P_PP__________ WP102000 17.9408 121.806 TD -1 17.4574 124.387 1 29 1002 17.5425 123.835 TD 25 1000 3 46
2000202N12131 2000 48 WP MM BOLAVEN 2000-07-23 06:00:00 TS 17.6571 123.957 main 175 165 P_OO__________ WP102000 17.9477 121.634 TD -1 17.6000 124.300 1 29 1002 17.7000 123.700 TD 25 1000 3 329
2000202N12131 2000 48 WP MM BOLAVEN 2000-07-23 09:00:00 TS 17.7850 123.846 main 158 153 P_PP__________ WP102000 17.9393 121.572 TD -1 17.7276 124.100 1 29 1002 17.8425 123.592 TD 25 1000 4 320
2000202N12131 2000 48 WP MM BOLAVEN 2000-07-23 12:00:00 TS 17.9500 123.700 main 151 137 P_OO__________ WP102000 17.9343 121.606 TD -1 17.9000 123.900 1 29 1002 18.0000 123.500 TD 25 1000 4 330
2000202N12131 2000 48 WP MM BOLAVEN 2000-07-23 15:00:00 TS 18.1700 123.614 main 137 137 P_PP__________ WP102000 17.9510 121.723 TD -1 18.1700 123.835 1 29 1002 18.1700 123.393 TD 27 998 5 344
2000202N12131 2000 48 WP MM BOLAVEN 2000-07-23 18:00:00 TS 18.4500 123.550 main 137 127 P_OO__________ WP102000 18.0076 121.910 TD -1 18.5000 123.800 1 29 1002 18.4000 123.300 TD 30 996 6 346
2000202N12131 2000 48 WP MM BOLAVEN 2000-07-23 21:00:00 TS 18.7475 123.456 main 130 124 P_PP__________ WP102000 18.1226 122.154 TD -1 18.8125 123.693 1 29 1002 18.6825 123.220 TD 30 996 6 351
2000202N12131 2000 48 WP MM BOLAVEN 2000-07-24 00:00:00 TS 19.0111 123.456 1000 tokyo main 143 143 POOO__________ WP102000 18.3140 122.442 TD -1 17.9000 123.900 2 1000 0 0 0 19.2000 123.600 1 29 1002 19.1000 123.200 TD 30 996 7 7
2000202N12131 2000 48 WP MM BOLAVEN 2000-07-24 03:00:00 TS 19.4280 123.543 main 168 168 PPPP__________ WP102000 18.6004 122.761 TD -1 18.2901 124.065 2 1000 0 0 19.7275 123.577 1 29 1002 19.6974 123.248 TD 30 996 9 12
2000202N12131 2000 48 WP MM BOLAVEN 2000-07-24 06:00:00 TS 19.8500 123.642 1000 tokyo main 216 216 OOOO__________ jtwc_wp WP112000 19.0000 123.100 TD 20 -1 18.8000 124.200 2 1000 0 0 0 20.3000 123.600 1 29 1002 20.4000 123.400 TD 30 996 10 14
2000202N12131 2000 48 WP MM BOLAVEN 2000-07-24 09:00:00 TS 20.3439 123.792 main 264 264 PPPP__________ WP112000 19.5114 123.429 TD 20 -1 19.5050 124.293 2 1000 0 0 20.8299 123.605 1 29 1002 21.1000 123.655 TD 30 996 11 17
2000202N12131 2000 48 WP MM BOLAVEN 2000-07-24 12:00:00 TS 20.9267 123.987 1000 tokyo main 331 331 OOOO__________ jtwc_wp WP112000 20.1000 123.800 TD 20 -1 20.3000 124.400 2 1000 0 0 0 21.3000 123.700 1 29 1002 21.8000 124.000 TD 30 996 12 22
2000202N12131 2000 48 WP MM BOLAVEN 2000-07-24 15:00:00 TS 21.4844 124.285 main 347 342 PPPP__________ WP112000 20.7126 124.208 TD 22 -1 21.0725 124.585 2 999 0 0 21.6725 123.955 1 29 1001 22.4800 124.392 TD 30 996 13 27
2000202N12131 2000 48 WP MM BOLAVEN 2000-07-24 18:00:00 TS 22.0750 124.625 998 tokyo main 346 346 OOOO__________ jtwc_wp WP112000 21.4000 124.600 TD 25 -1 21.8000 124.800 2 998 0 0 0 22.0000 124.300 1 29 1000 23.1000 124.800 TD 30 996 13 27
2000202N12131 2000 48 WP MM BOLAVEN 2000-07-24 21:00:00 TS 22.6543 124.938 main 361 361 PPPP__________ WP112000 22.2300 124.945 TD 27 -1 22.4374 124.985 2 998 0 0 22.3201 124.665 1 29 997 23.6299 125.158 TD 30 996 13 26
2000202N12131 2000 48 WP MM BOLAVEN 2000-07-25 00:00:00 TS 23.2000 125.225 998 tokyo main 365 362 OOOO__________ jtwc_wp WP112000 23.0000 125.200 TD 30 -1 23.0000 125.200 2 998 0 0 0 22.7000 125.000 1 29 995 24.1000 125.500 TD 30 996 12 24
2000202N12131 2000 48 WP MM BOLAVEN 2000-07-25 03:00:00 TS 23.7155 125.459 main 375 371 PPPP__________ WP112000 23.5248 125.308 TD 30 -1 23.5375 125.485 2 997 0 0 23.2198 125.208 1 29 995 24.5798 125.835 TD 30 996 11 24
2000202N12131 2000 48 WP MM BOLAVEN 2000-07-25 06:00:00 TS 24.1750 125.700 996 tokyo main 384 384 OOOO__________ jtwc_wp WP112000 23.9000 125.400 TD 30 -1 24.0000 125.800 2 996 0 0 0 23.8000 125.400 1 29 995 25.0000 126.200 TD 30 996 10 29
2000202N12131 2000 48 WP MM BOLAVEN 2000-07-25 09:00:00 TS 24.5968 125.999 main 405 405 PPPP__________ WP112000 24.2299 125.605 TD 30 -1 24.4025 126.108 2 995 0 0 24.4023 125.662 1 29 995 25.3523 126.620 TD 32 994 10 38
2000202N12131 2000 48 WP MM BOLAVEN 2000-07-25 12:00:00 TS 24.9250 126.350 994 tokyo main 443 443 OOOO__________ jtwc_wp WP112000 24.5000 125.900 TD 30 -1 24.7000 126.400 2 994 0 0 0 24.9000 126.000 1 29 995 25.6000 127.100 TS 35 992 9 51
2000202N12131 2000 48 WP MM BOLAVEN 2000-07-25 15:00:00 TS 25.1317 126.729 main 473 473 PPPP__________ WP112000 24.7647 126.240 TD 30 -1 24.8720 126.606 2 993 0 0 25.1674 126.413 1 29 995 25.7227 127.658 TS 37 991 8 65
2000202N12131 2000 48 WP MM BOLAVEN 2000-07-25 18:00:00 TS 25.2750 127.175 35 992 tokyo main 524 524 OOOO__________ jtwc_wp WP112000 25.0000 126.700 TD 30 -1 25.0000 126.900 3 35 992 0 9 70 70 0 25.3000 126.900 1 29 995 25.8000 128.200 TS 40 990 9 72
2000202N12131 2000 48 WP MM BOLAVEN 2000-07-25 21:00:00 TS 25.4252 127.724 main 574 574 PPPP__________ WP112000 25.1854 127.335 TD 32 -1 25.1732 127.473 3 37 991 0 9 85 85 25.3925 127.443 1 31 993 25.9498 128.645 TS 42 988 10 72
2000202N12131 2000 48 WP MM BOLAVEN 2000-07-26 00:00:00 TS 25.6000 128.275 40 990 tokyo main 636 612 OOOO__________ jtwc_wp WP112000 25.4000 128.000 TS 35 0 25.4000 128.100 3 40 990 0 9 100 100 0 25.5000 128.000 2 34 992 26.1000 129.000 TS 45 986 10 65
2000202N12131 2000 48 WP MM BOLAVEN 2000-07-26 03:00:00 TS 25.8537 128.742 40 990 tokyo main 601 579 POPP__________ WP112000 25.7650 128.574 TS 37 0 25.7000 128.600 3 40 990 0 9 120 120 0 25.7499 128.522 2 36 991 26.1998 129.273 TS 47 984 9 60
2000202N12131 2000 48 WP MM BOLAVEN 2000-07-26 06:00:00 TS 26.0500 129.125 40 985 tokyo main 568 550 OOOO__________ jtwc_wp WP112000 26.1000 129.000 TS 40 0 25.8000 129.000 3 40 985 0 9 150 150 0 26.0000 129.000 2 38 990 26.3000 129.500 STS 50 982 7 62
2000202N12131 2000 48 WP MM BOLAVEN 2000-07-26 09:00:00 TS 26.1931 129.461 40 985 tokyo main 548 533 POPP__________ WP112000 26.2222 129.196 TS 40 0 26.0000 129.400 3 40 985 0 9 150 150 0 26.1075 129.453 2 41 987 26.4426 129.795 STS 52 981 6 62
2000202N12131 2000 48 WP MM BOLAVEN 2000-07-26 12:00:00 TS 26.3250 129.700 45 985 tokyo main 533 508 OOOO__________ jtwc_wp WP112000 26.3000 129.300 TS 40 0 26.2000 129.700 3 45 985 0 9 150 150 0 26.2000 129.800 2 44 985 26.6000 130.000 STS 55 980 5 45
2000202N12131 2000 48 WP MM BOLAVEN 2000-07-26 15:00:00 TS 26.5550 129.859 45 985 tokyo main 497 486 POPP__________ WP112000 26.4926 129.515 TS 42 0 26.6000 129.900 3 45 985 0 9 150 150 0 26.3698 130.025 2 46 985 26.7574 129.995 STS 55 980 5 22
2000202N12131 2000 48 WP MM BOLAVEN 2000-07-26 18:00:00 TS 26.7500 129.900 45 985 tokyo main 475 464 OOOO__________ jtwc_wp WP112000 26.7000 129.700 TS 45 0 26.8000 129.900 3 45 985 0 9 150 150 0 26.6000 130.100 3 48 985 26.9000 129.900 STS 55 980 4 7
2000202N12131 2000 48 WP MM BOLAVEN 2000-07-26 21:00:00 TS 26.9275 129.892 45 985 tokyo main 464 442 POPP__________ WP112000 26.8725 129.788 TS 47 0 26.9000 129.900 3 45 985 0 3 180 150 0 26.9300 130.023 3 48 985 27.0075 129.857 STS 55 980 3 355
2000202N12131 2000 48 WP MM BOLAVEN 2000-07-27 00:00:00 TS 27.0750 129.850 45 985 tokyo main 442 433 OOOO__________ jtwc_wp WP112000 27.0000 129.800 TS 50 0 27.0000 129.900 3 45 985 0 3 200 150 0 27.2000 129.900 3 48 985 27.1000 129.800 STS 55 980 3 346
2000202N12131 2000 48 WP MM BOLAVEN 2000-07-27 03:00:00 TS 27.1794 129.824 45 985 tokyo main 433 433 POPP__________ WP112000 27.0725 129.773 TS 50 0 27.2000 129.900 3 45 985 0 3 200 150 0 27.2374 129.915 3 51 982 27.2075 129.708 STS 55 980 2 330
2000202N12131 2000 48 WP MM BOLAVEN 2000-07-27 06:00:00 TS 27.2250 129.750 45 985 tokyo main 433 424 OOOO__________ jtwc_wp WP112000 27.1000 129.700 TS 50 0 27.3000 129.800 3 45 985 0 3 200 150 0 27.2000 129.900 3 54 980 27.3000 129.600 STS 55 980 2 298
2000202N12131 2000 48 WP MM BOLAVEN 2000-07-27 09:00:00 TS 27.2732 129.631 45 985 tokyo main 426 426 POPP__________ WP112000 27.1000 129.607 TS 50 0 27.4000 129.700 3 45 985 0 3 200 150 0 27.2426 129.715 3 54 980 27.3500 129.500 STS 55 980 2 288
2000202N12131 2000 48 WP MM BOLAVEN 2000-07-27 12:00:00 TS 27.3000 129.500 45 985 tokyo main 429 429 OOOO__________ jtwc_wp WP112000 27.1000 129.500 TS 50 0 27.4000 129.600 3 45 985 0 3 200 150 0 27.3000 129.500 3 54 980 27.4000 129.400 STS 55 980 2 288
2000202N12131 2000 48 WP MM BOLAVEN 2000-07-27 15:00:00 TS 27.3406 129.394 45 985 tokyo main 431 421 POPP__________ WP112000 27.1350 129.393 TS 50 0 27.4000 129.500 3 45 985 0 3 200 150 0 27.3349 129.385 3 54 980 27.4925 129.300 STS 52 981 2 305
2000202N12131 2000 48 WP MM BOLAVEN 2000-07-27 18:00:00 TS 27.4250 129.300 45 985 tokyo main 424 413 OOOO__________ jtwc_wp WP112000 27.2000 129.300 TS 50 0 27.5000 129.400 3 45 985 0 3 200 150 0 27.4000 129.300 3 54 980 27.6000 129.200 STS 50 982 2 319
2000202N12131 2000 48 WP MM BOLAVEN 2000-07-27 21:00:00 TS 27.5281 129.211 45 985 tokyo main 416 395 POPP__________ WP112000 27.2775 129.250 TS 50 0 27.6000 129.300 3 45 985 0 3 200 150 0 27.5350 129.193 3 54 980 27.7000 129.100 STS 50 982 3 332
2000202N12131 2000 48 WP MM BOLAVEN 2000-07-28 00:00:00 TS 27.6750 129.150 45 985 tokyo main 395 389 OOOO__________ jtwc_wp WP112000 27.4000 129.200 TS 50 0 27.8000 129.300 3 45 985 0 3 200 150 0 27.7000 129.100 3 54 980 27.8000 129.000 STS 50 982 3 337
2000202N12131 2000 48 WP MM BOLAVEN 2000-07-28 03:00:00 TS 27.8356 129.061 45 985 tokyo main 389 372 POPP__________ WP112000 27.5925 129.093 TS 50 0 28.0000 129.200 3 45 985 0 3 200 150 0 27.8500 129.050 3 51 982 27.9000 128.900 STS 50 982 3 333
2000202N12131 2000 48 WP MM BOLAVEN 2000-07-28 06:00:00 TS 27.9750 128.975 45 985 tokyo main 372 367 OOOO__________ jtwc_wp WP112000 27.8000 129.000 TS 50 0 28.1000 129.100 3 45 985 0 3 200 150 0 28.0000 129.000 3 48 985 28.0000 128.800 STS 50 982 3 336
2000202N12131 2000 48 WP MM BOLAVEN 2000-07-28 09:00:00 TS 28.1075 128.919 45 985 tokyo main 367 357 POPP__________ WP112000 27.9650 128.992 TS 50 0 28.2000 129.100 3 45 985 0 3 200 150 0 28.1725 128.893 3 48 985 28.0925 128.693 STS 50 982 3 334
2000202N12131 2000 48 WP MM BOLAVEN 2000-07-28 12:00:00 TS 28.2000 128.850 45 985 tokyo main 357 350 OOOO__________ jtwc_wp WP112000 28.1000 129.000 TS 50 0 28.2000 129.000 3 45 985 0 3 200 150 0 28.3000 128.800 3 48 985 28.2000 128.600 STS 50 982 2 325
2000202N12131 2000 48 WP MM BOLAVEN 2000-07-28 15:00:00 TS 28.2569 128.800 45 985 tokyo main 350 350 POPP__________ WP112000 28.2075 128.958 TS 50 0 28.2000 128.900 3 45 985 0 3 200 150 0 28.3000 128.807 3 48 985 28.3200 128.535 STS 50 982 2 330
2000202N12131 2000 48 WP MM BOLAVEN 2000-07-28 18:00:00 TS 28.3500 128.750 45 985 tokyo main 340 334 OOOO__________ jtwc_wp WP112000 28.3000 128.900 TS 50 0 28.3000 128.800 3 45 985 0 3 200 150 0 28.3000 128.800 3 48 985 28.5000 128.500 STS 50 982 3 335
2000202N12131 2000 48 WP MM BOLAVEN 2000-07-28 21:00:00 TS 28.4844 128.677 45 985 tokyo main 334 318 POPP__________ WP112000 28.3625 128.857 TS 50 0 28.4000 128.700 3 45 985 0 3 200 150 0 28.4126 128.658 3 48 985 28.7625 128.492 STS 50 982 4 343
2000202N12131 2000 48 WP MM BOLAVEN 2000-07-29 00:00:00 TS 28.7000 128.625 45 985 tokyo main 318 289 OOOO__________ jtwc_wp WP112000 28.5000 128.800 TS 50 0 28.6000 128.700 3 45 985 0 3 180 140 0 28.6000 128.500 3 48 985 29.1000 128.500 STS 50 982 5 350
2000202N12131 2000 48 WP MM BOLAVEN 2000-07-29 03:00:00 TS 28.9737 128.580 45 985 tokyo main 289 261 POPP__________ WP112000 28.8125 128.708 TS 50 0 28.8000 128.700 3 45 985 0 3 180 140 0 28.7975 128.413 3 48 985 29.4850 128.500 STS 50 982 6 353
2000202N12131 2000 48 WP MM BOLAVEN 2000-07-29 06:00:00 TS 29.3250 128.550 50 980 tokyo main 261 233 OOOO__________ jtwc_wp WP112000 29.2000 128.600 TS 50 0 29.1000 128.700 4 50 980 0 3 180 140 0 29.1000 128.400 3 48 985 29.9000 128.500 STS 50 982 8 357
2000202N12131 2000 48 WP MM BOLAVEN 2000-07-29 09:00:00 TS 29.7356 128.541 50 980 tokyo main 233 203 POPP__________ WP112000 29.5500 128.478 TS 50 0 29.5000 128.700 4 50 980 0 3 180 140 0 29.5925 128.485 3 48 985 30.3000 128.500 STS 50 982 8 359
2000202N12131 2000 48 WP MM BOLAVEN 2000-07-29 12:00:00 TS 30.1500 128.525 45 985 tokyo main 196 179 OOOO__________ jtwc_wp WP112000 29.9000 128.400 TS 50 0 29.9000 128.600 3 45 985 0 3 170 130 0 30.1000 128.600 3 48 985 30.7000 128.500 STS 50 982 8 2
2000202N12131 2000 48 WP MM BOLAVEN 2000-07-29 15:00:00 TS 30.5106 128.550 45 985 tokyo main 179 155 POPP__________ WP112000 30.2350 128.427 TS 50 0 30.3000 128.600 3 45 985 0 3 170 130 0 30.4075 128.673 3 46 985 31.1000 128.500 STS 45 984 7 1
2000202N12131 2000 48 WP MM BOLAVEN 2000-07-29 18:00:00 TS 30.8750 128.550 45 985 tokyo main 155 155 OOOO__________ jtwc_wp WP112000 30.6000 128.500 TS 50 0 30.7000 128.500 3 45 985 0 3 170 130 0 30.7000 128.700 2 44 985 31.5000 128.500 TS 40 986 8 0
2000202N12131 2000 48 WP MM BOLAVEN 2000-07-29 21:00:00 TS 31.2813 128.548 45 985 tokyo main 161 150 POPP__________ WP112000 31.0125 128.550 TS 45 0 31.1000 128.500 3 45 985 0 3 170 130 0 31.1200 128.650 2 44 985 31.8925 128.493 TS 40 986 9 0
2000202N12131 2000 48 WP MM BOLAVEN 2000-07-30 00:00:00 TS 31.7500 128.550 45 985 tokyo main 136 112 OOOO__________ jtwc_wp WP112000 31.5000 128.600 TS 40 0 31.6000 128.500 3 45 985 0 3 170 130 0 31.6000 128.600 2 44 985 32.3000 128.500 TS 40 986 10 0
2000202N12131 2000 48 WP MM BOLAVEN 2000-07-30 03:00:00 TS 32.2531 128.580 40 985 tokyo main 108 95 POPP__________ WP112000 32.0850 128.643 TS 37 0 32.1000 128.500 3 40 985 0 3 170 130 0 32.1000 128.642 2 41 987 32.7275 128.535 TS 40 986 10 4
2000202N12131 2000 48 WP MM BOLAVEN 2000-07-30 06:00:00 TS 32.7750 128.625 40 985 tokyo main 93 83 OOOO__________ jtwc_wp WP112000 32.7000 128.700 TS 35 0 32.6000 128.500 3 40 985 0 3 160 120 0 32.6000 128.700 2 38 990 33.2000 128.600 TS 40 986 10 5
2000202N12131 2000 48 WP MM BOLAVEN 2000-07-30 09:00:00 TS 33.2549 128.682 40 985 tokyo main 83 83 POPP__________ WP112000 33.2575 128.785 TS 35 0 33.0000 128.600 3 40 985 0 3 160 120 0 33.0575 128.693 2 36 990 33.7048 128.649 TS 40 986 9 6
2000202N12131 2000 48 WP MM BOLAVEN 2000-07-30 12:00:00 TS 33.7133 128.747 40 985 tokyo main 94 86 OOOO__________ jtwc_wp WP112000 33.8000 128.900 TS 35 0 33.4000 128.600 3 40 985 0 3 140 100 0 33.5000 128.700 2 34 990 34.3000 128.800 TS 40 986 9 10
2000202N12131 2000 48 WP MM BOLAVEN 2000-07-30 15:00:00 TS 34.1607 128.868 40 990 tokyo main 81 44 POPP__________ WP112000 34.3499 129.028 TS 35 0 33.8000 128.700 3 40 990 0 3 140 80 0 33.9048 128.741 2 34 990 35.0156 129.140 TS 40 986 10 15
2000202N12131 2000 48 WP MM BOLAVEN 2000-07-30 18:00:00 TS 34.6615 129.046 40 988 tokyo main 33 0 OOOO__________ jtwc_wp WP112000 34.9000 129.200 TS 35 0 34.4000 128.900 3 40 988 0 3 140 60 0 34.4000 128.900 2 34 990 35.8000 129.600 TS 40 986 11 17
2000202N12131 2000 48 WP MM BOLAVEN 2000-07-30 21:00:00 TS 35.2039 129.261 35 990 tokyo main 9 0 POP___________ WP112000 35.3669 129.371 TS 32 -1 35.2000 129.200 3 35 990 0 3 120 40 0 35.0447 129.212 2 31 991 TS 14 23
2000202N12131 2000 48 WP MM BOLAVEN 2000-07-31 00:00:00 TS 35.9300 129.700 992 tokyo main 14 8 OOO___________ jtwc_wp WP112000 36.0000 129.700 TD 30 -1 35.9000 129.700 2 992 0 0 0 35.9000 129.700 1 29 992 18 28
2000202N12131 2000 48 WP MM BOLAVEN 2000-07-31 03:00:00 TS 36.8296 130.312 main 71 71 PPP___________ WP112000 36.9916 130.307 TD 30 -1 36.6702 130.296 2 993 0 0 36.9861 130.349 1 29 996 22 29
2000202N12131 2000 48 WP MM BOLAVEN 2000-07-31 06:00:00 MX 37.8667 131.033 994 tokyo main 163 163 OOO___________ jtwc_wp WP112000 38.2000 131.100 TD 30 -1 37.7000 131.000 6 994 0 0 0 38.2000 131.100 1 29 1000 27 26
2000202N12131 2000 48 WP MM BOLAVEN 2000-07-31 09:00:00 ET 39.2807 131.850 main 250 223 _P____________ WP112000 TD -1 39.2807 131.850 6 995 0 0 1 32 24
2000202N12131 2000 48 WP MM BOLAVEN 2000-07-31 12:00:00 ET 40.8000 132.700 996 tokyo main 211 124 _O____________ 40.8000 132.700 6 996 0 0 0 26 26
2000202N12131 2000 48 WP MM BOLAVEN 2000-07-31 15:00:00 ET 41.6337 133.344 main 124 68 _P____________ 41.6337 133.344 6 997 0 0 17 33
2000202N12131 2000 48 WP MM BOLAVEN 2000-07-31 18:00:00 ET 42.2000 133.900 998 tokyo main 68 32 _O____________ 42.2000 133.900 6 998 0 0 0 15 33
2000202N12131 2000 48 WP MM BOLAVEN 2000-07-31 21:00:00 ET 42.8632 134.429 main 27 0 _P____________ 42.8632 134.429 6 999 0 0 16 34
2000202N12131 2000 48 WP MM BOLAVEN 2000-08-01 00:00:00 ET 43.5000 135.100 1000 tokyo main 0 0 _O____________ 43.5000 135.100 6 1000 0 0 0 17 44
2000202N12131 2000 48 WP MM BOLAVEN 2000-08-01 03:00:00 ET 44.1079 136.111 main 36 27 _P____________ 44.1079 136.111 6 1002 0 0 20 53
2000202N12131 2000 48 WP MM BOLAVEN 2000-08-01 06:00:00 ET 44.7000 137.300 1004 tokyo main 59 57 _O____________ 44.7000 137.300 6 1004 0 0 0 21 55
2000202N12131 2000 48 WP MM BOLAVEN 2000-08-01 09:00:00 ET 45.2849 138.510 main 83 83 _P____________ 45.2849 138.510 6 1005 0 0 21 55
2000202N12131 2000 48 WP MM BOLAVEN 2000-08-01 12:00:00 ET 45.9000 139.700 1006 tokyo main 127 83 _O____________ 45.9000 139.700 6 1006 0 0 0 21 49
2000202N12131 2000 48 WP MM BOLAVEN 2000-08-01 15:00:00 ET 46.6427 140.750 main 83 30 _P____________ 46.6427 140.750 6 1006 0 0 20 46
2000202N12131 2000 48 WP MM BOLAVEN 2000-08-01 18:00:00 ET 47.3000 141.800 1006 tokyo main 22 0 _O____________ 47.3000 141.800 6 1006 0 0 0 18 55
2000202N12131 2000 48 WP MM BOLAVEN 2000-08-01 21:00:00 ET 47.6884 142.963 main 31 31 _P____________ 47.6884 142.963 6 1008 0 0 17 70
2000202N12131 2000 48 WP MM BOLAVEN 2000-08-02 00:00:00 ET 47.9000 144.200 1010 tokyo main 86 _O____________ 47.9000 144.200 6 1010 0 0 0 17 76

デジタル台風データ・検索

IBTrACS Databaseについて

本データベースは、米国NOAAが公開する1842年以降の世界の熱帯低気圧のベストトラックデータアーカイブInternational Best Track Archive for Climate Stewardship (IBTrACS)を、ウェブで閲覧しやすい形式に変換したものです。

最終更新日:2021-12-03